Terminal Aerodrome Forecast
Issued by NWS Jacksonville, FL

Home | Current Version | Previous Version | Text Only | Print | Product List | Glossary On
Versions: 1 2 3 4 5 6 7 8 9 10 11 12 13 14 15 16
628
FTUS42 KJAX 141120
TAFGNV
TAF
KGNV 141120Z 1412/1512 24005KT P6SM SCT020 SCT040
     FM141800 25010KT P6SM SCT020 BKN250
     FM150000 VRB03KT P6SM BKN040 BKN250
     FM150900 00000KT 3SM BR BKN030=

USA.gov is the U.S. government's official web portal to all federal, state and local government web resources and services.